Time;durP1;ratioP1;P1;durP2;ratioP2;P2;SDS_P1;SDS_P2;PMS_P1;PMS_P2;Temp;Humidity;BMP_temperature;BMP_pressure;BME280_temperature;BME280_humidity;BME280_pressure;Samples;Min_cycle;Max_cycle;Signal;HPM_P1;HPM_P2
2024/02/23 00:01:17;;;;;;;9.30;4.13;;;14.30;81.50;;;;;;5052871;28;20452;-74
2024/02/23 00:03:42;;;;;;;9.65;3.97;;;14.30;81.60;;;;;;5052805;28;20059;-75
2024/02/23 00:06:08;;;;;;;8.10;3.80;;;14.30;81.70;;;;;;5052963;28;20032;-74
2024/02/23 00:08:34;;;;;;;11.02;3.70;;;14.30;81.40;;;;;;5052710;28;20123;-74
2024/02/23 00:11:00;;;;;;;8.15;3.92;;;14.30;81.60;;;;;;5052704;28;20025;-74
2024/02/23 00:13:26;;;;;;;10.00;3.95;;;14.30;81.50;;;;;;5052754;28;20190;-75
2024/02/23 00:15:51;;;;;;;9.20;4.10;;;14.30;81.50;;;;;;5052009;28;20064;-74
2024/02/23 00:18:17;;;;;;;10.05;4.60;;;14.30;81.50;;;;;;5052406;28;20118;-73
2024/02/23 00:20:43;;;;;;;8.13;3.58;;;14.30;81.60;;;;;;5052517;28;20140;-74
2024/02/23 00:23:09;;;;;;;7.68;3.90;;;14.30;81.40;;;;;;5052631;28;20033;-73
2024/02/23 00:25:35;;;;;;;11.18;4.00;;;14.30;81.70;;;;;;5052474;28;20031;-73
2024/02/23 00:28:00;;;;;;;9.80;3.63;;;14.30;81.70;;;;;;5052374;28;20032;-74
2024/02/23 00:30:27;;;;;;;9.30;4.38;;;14.30;81.70;;;;;;5052350;28;20049;-74
2024/02/23 00:32:52;;;;;;;14.85;4.30;;;14.20;81.80;;;;;;5052356;28;20041;-73
2024/02/23 00:35:19;;;;;;;11.75;4.70;;;14.20;81.70;;;;;;5052271;28;20112;-74
2024/02/23 00:37:44;;;;;;;9.43;4.38;;;14.20;81.90;;;;;;5052230;28;20561;-74
2024/02/23 00:40:11;;;;;;;9.68;4.03;;;14.20;81.90;;;;;;5052122;28;20068;-73
2024/02/23 00:42:36;;;;;;;12.00;3.95;;;14.20;82.20;;;;;;5052112;28;20519;-72
2024/02/23 00:45:03;;;;;;;7.75;4.03;;;14.20;82.30;;;;;;5052131;28;20034;-71
2024/02/23 00:47:29;;;;;;;10.88;3.88;;;14.20;82.30;;;;;;5052058;28;20029;-73
2024/02/23 00:49:54;;;;;;;10.60;4.00;;;14.20;82.00;;;;;;5052080;28;20194;-73
2024/02/23 00:52:20;;;;;;;10.60;4.07;;;14.20;82.10;;;;;;5052147;28;20028;-73
2024/02/23 00:54:46;;;;;;;9.13;3.85;;;14.10;82.10;;;;;;5051769;28;20429;-73
2024/02/23 00:57:11;;;;;;;8.25;4.20;;;14.10;82.10;;;;;;5051872;28;20033;-73
2024/02/23 00:59:37;;;;;;;11.35;4.38;;;14.10;82.30;;;;;;5051841;28;20531;-70
2024/02/23 01:02:03;;;;;;;9.45;4.70;;;14.10;82.50;;;;;;5051981;28;20388;-73
2024/02/23 01:04:28;;;;;;;11.05;4.80;;;14.10;82.50;;;;;;5052043;28;20033;-73
2024/02/23 01:06:54;;;;;;;9.60;4.05;;;14.10;82.60;;;;;;5050638;28;20115;-74
2024/02/23 01:09:20;;;;;;;9.23;3.90;;;14.10;82.50;;;;;;5052046;28;20087;-73
2024/02/23 01:11:49;;;;;;;10.98;4.35;;;14.00;82.70;;;;;;5051811;28;20107;-73
2024/02/23 01:14:15;;;;;;;9.85;3.95;;;14.00;82.80;;;;;;5051904;28;20086;-73
2024/02/23 01:16:41;;;;;;;9.65;4.43;;;14.00;83.00;;;;;;5051612;28;20091;-72
2024/02/23 01:19:07;;;;;;;9.73;4.28;;;14.00;83.00;;;;;;5050391;28;20072;-72
2024/02/23 01:21:32;;;;;;;12.18;4.68;;;13.90;83.00;;;;;;5051748;28;20529;-74
2024/02/23 01:24:00;;;;;;;8.52;4.07;;;13.90;83.10;;;;;;5051963;28;20115;-73
2024/02/23 01:26:27;;;;;;;13.15;4.47;;;13.90;83.40;;;;;;5050757;28;20028;-72
2024/02/23 01:28:53;;;;;;;11.57;4.82;;;13.90;83.30;;;;;;5054314;28;20094;-73
2024/02/23 01:31:19;;;;;;;8.65;4.28;;;13.90;83.50;;;;;;5055466;28;20053;-73
2024/02/23 01:33:44;;;;;;;11.82;4.25;;;13.90;83.60;;;;;;5055554;28;20033;-74
2024/02/23 01:36:10;;;;;;;7.90;4.10;;;13.90;83.60;;;;;;5055332;28;20029;-73
2024/02/23 01:38:36;;;;;;;8.93;4.10;;;13.90;83.60;;;;;;5055428;28;20404;-73
2024/02/23 01:41:02;;;;;;;11.60;4.78;;;13.90;83.70;;;;;;5055426;28;20026;-74
2024/02/23 01:43:28;;;;;;;11.23;4.93;;;13.80;83.80;;;;;;5055330;28;20129;-73
2024/02/23 01:45:54;;;;;;;9.13;4.47;;;13.80;83.80;;;;;;5055233;28;20040;-73
2024/02/23 01:48:21;;;;;;;10.60;5.10;;;13.80;84.10;;;;;;5054957;28;20065;-73
2024/02/23 01:50:47;;;;;;;8.35;4.20;;;13.80;84.30;;;;;;5055438;28;20057;-74
2024/02/23 01:53:13;;;;;;;10.15;4.57;;;13.80;84.40;;;;;;5037296;28;20036;-73
2024/02/23 01:55:43;;;;;;;14.05;5.30;;;13.80;84.20;;;;;;5054950;28;20052;-72
2024/02/23 01:58:09;;;;;;;11.18;4.93;;;13.80;84.20;;;;;;5053596;28;20483;-74
2024/02/23 02:00:35;;;;;;;12.90;4.97;;;13.80;84.30;;;;;;5054820;28;20041;-73
2024/02/23 02:03:01;;;;;;;12.43;4.53;;;13.80;84.50;;;;;;5054893;28;20096;-73
2024/02/23 02:05:28;;;;;;;9.13;4.35;;;13.80;84.40;;;;;;5054969;28;20080;-73
2024/02/23 02:07:58;;;;;;;8.60;4.60;;;13.80;84.50;;;;;;5054991;28;20029;-73
2024/02/23 02:10:26;;;;;;;10.50;4.60;;;13.70;84.80;;;;;;5053314;28;20404;-73
2024/02/23 02:12:52;;;;;;;8.27;4.72;;;13.70;84.90;;;;;;5054610;28;20064;-74
2024/02/23 02:15:17;;;;;;;13.93;5.22;;;13.70;84.90;;;;;;5054779;28;20503;-74
2024/02/23 02:17:43;;;;;;;10.63;4.50;;;13.80;85.20;;;;;;5053216;28;20073;-74
2024/02/23 02:20:13;;;;;;;9.02;4.47;;;13.80;85.10;;;;;;5054703;28;20059;-72
2024/02/23 02:22:39;;;;;;;8.80;4.40;;;13.80;85.80;;;;;;5054690;28;20036;-73
2024/02/23 02:25:06;;;;;;;10.48;5.07;;;13.80;85.20;;;;;;5054261;28;20037;-74
2024/02/23 02:27:32;;;;;;;11.43;4.47;;;13.80;85.20;;;;;;5054306;28;20072;-73
2024/02/23 02:29:58;;;;;;;10.95;5.00;;;13.80;85.20;;;;;;5054230;28;20037;-73
2024/02/23 02:32:24;;;;;;;10.52;4.32;;;13.80;85.10;;;;;;5054298;28;20392;-74
2024/02/23 02:34:49;;;;;;;10.05;4.28;;;13.90;85.40;;;;;;5054369;28;20032;-73
2024/02/23 02:37:15;;;;;;;9.57;4.57;;;13.90;85.40;;;;;;5054487;28;20036;-72
2024/02/23 02:39:41;;;;;;;8.05;4.13;;;13.90;85.30;;;;;;5053117;28;20043;-74
2024/02/23 02:42:07;;;;;;;8.00;4.35;;;13.90;85.30;;;;;;5053933;28;20060;-73
2024/02/23 02:44:33;;;;;;;9.52;4.65;;;13.90;85.40;;;;;;5054107;28;20075;-73
2024/02/23 02:46:58;;;;;;;8.52;3.85;;;13.90;85.30;;;;;;5052837;28;20523;-73
2024/02/23 02:49:24;;;;;;;15.10;4.35;;;13.90;85.30;;;;;;5054142;28;20033;-73
2024/02/23 02:51:50;;;;;;;9.50;4.00;;;13.90;85.10;;;;;;5053727;28;20025;-73
2024/02/23 02:54:16;;;;;;;10.68;4.47;;;13.90;85.10;;;;;;5053955;28;20037;-72
2024/02/23 02:56:43;;;;;;;10.63;4.30;;;13.90;85.00;;;;;;5053929;28;20052;-73
2024/02/23 02:59:10;;;;;;;13.95;4.35;;;13.90;85.10;;;;;;5053511;28;20052;-73
2024/02/23 03:01:36;;;;;;;10.38;5.20;;;13.90;85.20;;;;;;5053923;28;20049;-72
2024/02/23 03:04:01;;;;;;;10.88;4.65;;;13.90;85.20;;;;;;5053525;28;20037;-73
2024/02/23 03:06:27;;;;;;;11.00;4.47;;;13.90;85.20;;;;;;5054034;28;20196;-74
2024/02/23 03:08:53;;;;;;;9.00;4.82;;;13.90;85.10;;;;;;5052624;28;20500;-73
2024/02/23 03:11:18;;;;;;;10.25;4.85;;;14.00;85.20;;;;;;5053800;28;20503;-73
2024/02/23 03:13:44;;;;;;;14.40;4.70;;;14.00;85.20;;;;;;5053728;28;20033;-72
2024/02/23 03:16:23;;;;;;;10.48;4.95;;;14.00;85.40;;;;;;5053472;28;20033;-73
2024/02/23 03:18:48;;;;;;;9.63;4.63;;;14.00;85.20;;;;;;5053524;28;20447;-73
2024/02/23 03:21:15;;;;;;;12.32;4.75;;;14.00;85.20;;;;;;5053496;28;20040;-73
2024/02/23 03:23:41;;;;;;;9.13;4.63;;;14.00;85.30;;;;;;5035490;28;20040;-72
2024/02/23 03:26:07;;;;;;;14.05;5.43;;;14.00;85.40;;;;;;5053434;28;20035;-73
2024/02/23 03:28:33;;;;;;;9.68;4.78;;;14.00;85.40;;;;;;5053441;28;20029;-73
2024/02/23 03:31:00;;;;;;;11.07;5.35;;;14.00;86.10;;;;;;5053109;28;20472;-72
2024/02/23 03:33:26;;;;;;;10.20;5.03;;;14.00;85.50;;;;;;5053328;28;20037;-74
2024/02/23 03:35:52;;;;;;;13.27;5.05;;;14.00;85.50;;;;;;5053029;28;20473;-72
2024/02/23 03:38:18;;;;;;;12.35;5.03;;;14.00;85.60;;;;;;5053066;28;20067;-73
2024/02/23 03:40:44;;;;;;;10.35;5.05;;;14.10;85.70;;;;;;5053247;28;20037;-73
2024/02/23 03:43:09;;;;;;;11.55;5.22;;;14.10;85.70;;;;;;5053190;28;20033;-74
2024/02/23 03:45:35;;;;;;;15.38;5.68;;;14.10;86.10;;;;;;5052990;28;20033;-73
2024/02/23 03:48:03;;;;;;;12.73;5.10;;;14.10;85.70;;;;;;5052971;28;20036;-73
2024/02/23 03:50:29;;;;;;;12.05;5.30;;;14.10;86.00;;;;;;5053003;28;20108;-73
2024/02/23 03:52:55;;;;;;;11.32;5.10;;;14.10;86.10;;;;;;5052972;28;20037;-73
2024/02/23 03:55:21;;;;;;;10.32;5.57;;;14.10;86.10;;;;;;5052940;28;20040;-73
2024/02/23 03:57:47;;;;;;;11.20;5.38;;;14.10;86.30;;;;;;5051105;28;20037;-73
2024/02/23 04:00:13;;;;;;;13.60;5.20;;;14.10;86.20;;;;;;5052819;28;20033;-72
2024/02/23 04:02:39;;;;;;;14.00;5.93;;;14.10;86.20;;;;;;5052600;28;20127;-73
2024/02/23 04:05:06;;;;;;;12.93;5.35;;;14.10;86.40;;;;;;5051014;28;20116;-73
2024/02/23 04:07:31;;;;;;;13.73;6.03;;;14.10;86.40;;;;;;5052609;28;20094;-72
2024/02/23 04:09:58;;;;;;;15.43;5.28;;;14.10;86.40;;;;;;5052693;28;20121;-73
2024/02/23 04:12:24;;;;;;;19.27;6.55;;;14.10;86.60;;;;;;5052801;28;20476;-74
2024/02/23 04:14:50;;;;;;;12.63;6.32;;;14.10;86.90;;;;;;5052925;28;20381;-74
2024/02/23 04:17:16;;;;;;;12.60;6.10;;;14.10;86.70;;;;;;5051534;28;20035;-73
2024/02/23 04:19:43;;;;;;;14.85;6.13;;;14.10;86.80;;;;;;5052319;28;20064;-72
2024/02/23 04:22:09;;;;;;;14.30;6.32;;;14.10;86.70;;;;;;5052385;28;20037;-72
2024/02/23 04:24:39;;;;;;;14.27;6.18;;;14.10;86.80;;;;;;5052455;28;20091;-72
2024/02/23 04:27:06;;;;;;;15.93;6.68;;;14.10;86.90;;;;;;5052345;28;20033;-74
2024/02/23 04:29:34;;;;;;;12.40;6.53;;;14.10;87.30;;;;;;5034340;28;20489;-73
2024/02/23 04:32:01;;;;;;;18.10;6.50;;;14.10;87.10;;;;;;5052182;28;20114;-73
2024/02/23 04:34:27;;;;;;;16.55;7.00;;;14.10;87.30;;;;;;5051954;28;20447;-73
2024/02/23 04:36:54;;;;;;;14.77;6.22;;;14.10;87.40;;;;;;5052044;28;20060;-73
2024/02/23 04:39:19;;;;;;;13.82;6.30;;;14.10;87.70;;;;;;5051999;28;20118;-72
2024/02/23 04:41:45;;;;;;;15.30;6.95;;;14.10;87.40;;;;;;5050966;28;20033;-72
2024/02/23 04:44:11;;;;;;;15.05;6.80;;;14.10;87.70;;;;;;5051948;28;20045;-73
2024/02/23 04:46:37;;;;;;;13.07;6.63;;;14.10;87.50;;;;;;5051941;28;20086;-72
2024/02/23 04:49:02;;;;;;;19.13;7.13;;;14.10;87.40;;;;;;5052025;28;20047;-74
2024/02/23 04:51:28;;;;;;;27.38;8.70;;;14.10;87.40;;;;;;5052069;28;20032;-74
2024/02/23 04:53:54;;;;;;;16.48;7.32;;;14.10;87.60;;;;;;5052056;28;20047;-74
2024/02/23 04:56:20;;;;;;;14.45;7.13;;;14.10;88.00;;;;;;5051674;28;20039;-72
2024/02/23 04:58:46;;;;;;;14.02;7.32;;;14.00;87.60;;;;;;5051738;28;20064;-73
2024/02/23 05:01:12;;;;;;;12.32;7.47;;;14.00;87.60;;;;;;5033305;28;20029;-73
2024/02/23 05:03:38;;;;;;;14.85;7.25;;;14.00;87.80;;;;;;5051653;28;20455;-73
2024/02/23 05:06:04;;;;;;;13.70;7.10;;;14.00;87.80;;;;;;5052029;28;20066;-73
2024/02/23 05:08:30;;;;;;;15.23;7.30;;;14.00;88.00;;;;;;5051617;28;20057;-73
2024/02/23 05:10:56;;;;;;;16.58;8.27;;;14.10;88.10;;;;;;5051459;28;20103;-73
2024/02/23 05:13:23;;;;;;;15.52;7.57;;;14.00;87.80;;;;;;5051482;28;20558;-74
2024/02/23 05:15:48;;;;;;;16.15;7.63;;;14.00;88.10;;;;;;5051480;28;20076;-73
2024/02/23 05:18:14;;;;;;;16.95;7.80;;;14.00;88.20;;;;;;5051560;28;20102;-73
2024/02/23 05:20:40;;;;;;;18.40;8.50;;;14.00;88.30;;;;;;5051588;28;20044;-75
2024/02/23 05:23:05;;;;;;;21.58;8.82;;;14.00;88.50;;;;;;5051468;28;20029;-73
2024/02/23 05:25:31;;;;;;;20.23;8.75;;;14.00;88.50;;;;;;5051893;28;20033;-74
2024/02/23 05:27:57;;;;;;;18.88;8.05;;;14.10;88.70;;;;;;5051729;28;20045;-75
2024/02/23 05:30:23;;;;;;;19.45;8.40;;;14.00;88.60;;;;;;5051679;28;20041;-73
2024/02/23 05:32:48;;;;;;;14.98;7.45;;;14.10;88.90;;;;;;5051784;28;20033;-74
2024/02/23 05:35:14;;;;;;;18.50;7.95;;;14.10;88.80;;;;;;5051361;28;20357;-73
2024/02/23 05:37:41;;;;;;;15.55;7.93;;;14.10;88.80;;;;;;5051607;28;20123;-74
2024/02/23 05:40:10;;;;;;;17.35;8.45;;;14.10;88.90;;;;;;5051329;28;20121;-74
2024/02/23 05:42:39;;;;;;;20.70;8.15;;;14.10;89.00;;;;;;5051447;28;20037;-74
2024/02/23 05:45:08;;;;;;;22.83;8.02;;;14.10;88.90;;;;;;5051575;28;20040;-74
2024/02/23 05:47:40;;;;;;;20.77;8.18;;;14.20;89.10;;;;;;5051742;28;20028;-73
2024/02/23 05:50:09;;;;;;;20.77;8.43;;;14.20;88.80;;;;;;5051347;28;20496;-74
2024/02/23 05:52:36;;;;;;;21.85;7.70;;;14.20;89.20;;;;;;5051389;28;20051;-73
2024/02/23 05:55:03;;;;;;;18.95;8.20;;;14.20;89.10;;;;;;5051517;28;20033;-74
2024/02/23 05:57:29;;;;;;;18.60;7.65;;;14.30;89.40;;;;;;5051652;28;20416;-72
2024/02/23 05:59:55;;;;;;;21.40;7.45;;;14.30;89.40;;;;;;5051076;28;20059;-73
2024/02/23 06:02:22;;;;;;;17.23;7.65;;;14.30;89.30;;;;;;5051655;28;20029;-74
2024/02/23 06:04:47;;;;;;;18.48;7.50;;;14.30;89.60;;;;;;5051707;28;20091;-73
2024/02/23 06:07:17;;;;;;;14.98;7.30;;;14.30;89.50;;;;;;5051694;28;20037;-74
2024/02/23 06:09:43;;;;;;;25.23;8.55;;;14.40;89.10;;;;;;5051055;28;20102;-74
2024/02/23 06:12:09;;;;;;;17.83;7.75;;;14.40;89.70;;;;;;5033219;28;20041;-73
2024/02/23 06:14:36;;;;;;;18.63;8.57;;;14.40;89.60;;;;;;5053134;28;20037;-74
2024/02/23 06:17:02;;;;;;;20.80;8.25;;;14.40;89.50;;;;;;5054775;28;20025;-74
2024/02/23 06:19:28;;;;;;;21.33;8.60;;;14.50;89.70;;;;;;5054427;28;20128;-74
2024/02/23 06:21:54;;;;;;;19.25;8.35;;;14.50;89.50;;;;;;5054957;28;20084;-73
2024/02/23 06:24:19;;;;;;;19.70;7.60;;;14.50;89.80;;;;;;5054716;28;20155;-73
2024/02/23 06:26:46;;;;;;;23.23;8.38;;;14.60;89.70;;;;;;5054847;28;20021;-74
2024/02/23 06:29:13;;;;;;;19.67;8.38;;;14.60;89.50;;;;;;5036843;28;20037;-74
2024/02/23 06:31:39;;;;;;;15.63;8.07;;;14.60;89.70;;;;;;5054474;28;20045;-73
2024/02/23 06:34:05;;;;;;;19.30;7.97;;;14.70;89.50;;;;;;5054495;28;20037;-74
2024/02/23 06:36:31;;;;;;;17.13;8.32;;;14.70;89.80;;;;;;5054200;28;20033;-74
2024/02/23 06:38:57;;;;;;;23.70;8.23;;;14.70;89.60;;;;;;5054064;28;20372;-73
2024/02/23 06:41:22;;;;;;;22.83;7.97;;;14.80;89.70;;;;;;5053793;28;20369;-74
2024/02/23 06:43:48;;;;;;;20.70;7.85;;;14.80;89.90;;;;;;5054111;28;20092;-75
2024/02/23 06:46:14;;;;;;;19.85;8.18;;;14.90;89.70;;;;;;5052608;28;20033;-74
2024/02/23 06:48:40;;;;;;;26.73;8.30;;;14.90;89.60;;;;;;5053918;28;20096;-75
2024/02/23 06:51:09;;;;;;;19.60;8.90;;;14.90;89.70;;;;;;5054106;28;20033;-74
2024/02/23 06:53:35;;;;;;;20.10;8.52;;;14.90;89.90;;;;;;5053985;28;20500;-74
2024/02/23 06:56:01;;;;;;;27.27;9.35;;;14.90;89.80;;;;;;5052629;28;20432;-74
2024/02/23 06:58:27;;;;;;;25.50;8.13;;;14.90;90.00;;;;;;5053781;28;20041;-75
2024/02/23 07:00:53;;;;;;;23.27;8.48;;;14.90;90.00;;;;;;5054173;28;20037;-73
2024/02/23 07:03:19;;;;;;;25.52;8.88;;;15.00;90.10;;;;;;5053884;28;20185;-75
2024/02/23 07:05:45;;;;;;;22.00;8.85;;;15.00;90.00;;;;;;5053581;28;20041;-74
2024/02/23 07:08:12;;;;;;;24.00;9.27;;;15.00;90.00;;;;;;5053569;28;20029;-75
2024/02/23 07:10:37;;;;;;;28.48;9.38;;;15.10;90.10;;;;;;5053349;28;20037;-74
2024/02/23 07:13:03;;;;;;;26.92;9.48;;;15.10;90.10;;;;;;5053434;28;20029;-74
2024/02/23 07:15:29;;;;;;;26.23;9.75;;;15.10;90.20;;;;;;5053271;28;20048;-73
2024/02/23 07:17:55;;;;;;;25.20;8.93;;;15.00;90.10;;;;;;5053376;28;20413;-73
2024/02/23 07:20:22;;;;;;;27.90;9.48;;;15.00;90.20;;;;;;5053428;28;20072;-73
2024/02/23 07:22:48;;;;;;;31.48;10.25;;;15.10;90.20;;;;;;5053496;28;20040;-75
2024/02/23 07:25:20;;;;;;;28.05;9.40;;;15.10;90.30;;;;;;5052731;28;20033;-75
2024/02/23 07:27:46;;;;;;;26.02;10.25;;;15.10;90.10;;;;;;5053270;28;20033;-74
2024/02/23 07:30:12;;;;;;;43.42;10.57;;;15.10;90.30;;;;;;5035063;28;20418;-73
2024/02/23 07:32:38;;;;;;;30.95;10.82;;;15.20;90.40;;;;;;5053229;28;20056;-74
2024/02/23 07:35:04;;;;;;;26.88;9.65;;;15.20;90.30;;;;;;5052945;28;20132;-74
2024/02/23 07:37:30;;;;;;;26.80;10.65;;;15.20;90.30;;;;;;5053007;28;20025;-74
2024/02/23 07:39:56;;;;;;;28.77;10.25;;;15.30;90.30;;;;;;5052935;28;20048;-74
2024/02/23 07:42:22;;;;;;;32.55;10.35;;;15.30;90.30;;;;;;5052950;28;20037;-74
2024/02/23 07:44:47;;;;;;;37.88;11.18;;;15.50;90.30;;;;;;5053026;28;20060;-74
2024/02/23 07:47:13;;;;;;;25.85;9.48;;;15.50;90.50;;;;;;5053118;28;20029;-74
2024/02/23 07:49:40;;;;;;;33.83;11.00;;;15.60;90.20;;;;;;5052994;28;20044;-74
2024/02/23 07:52:06;;;;;;;24.10;10.20;;;15.60;90.30;;;;;;5053020;28;20052;-75
2024/02/23 07:54:32;;;;;;;33.05;11.27;;;15.70;90.20;;;;;;5053016;28;20450;-74
2024/02/23 07:56:58;;;;;;;23.13;9.38;;;15.70;90.20;;;;;;5052734;28;20405;-74
2024/02/23 07:59:24;;;;;;;28.67;10.55;;;15.70;90.20;;;;;;5053336;28;20090;-75
2024/02/23 08:01:50;;;;;;;32.10;10.10;;;15.80;90.10;;;;;;5053488;28;20104;-75
2024/02/23 08:04:16;;;;;;;26.58;10.55;;;15.90;90.20;;;;;;5034874;28;20115;-74
2024/02/23 08:06:42;;;;;;;28.95;9.93;;;15.90;90.00;;;;;;5051752;28;20029;-74
2024/02/23 08:09:09;;;;;;;36.25;11.25;;;16.00;90.00;;;;;;5052653;28;20036;-73
2024/02/23 08:11:35;;;;;;;31.35;10.57;;;16.00;90.00;;;;;;5051101;28;20109;-75
2024/02/23 08:14:02;;;;;;;25.05;10.30;;;16.10;89.80;;;;;;5052890;28;20090;-75
2024/02/23 08:16:28;;;;;;;27.35;10.18;;;16.20;89.50;;;;;;5051060;28;20090;-75
2024/02/23 08:18:54;;;;;;;28.67;10.40;;;16.30;89.40;;;;;;5033991;28;20049;-74
2024/02/23 08:21:20;;;;;;;32.42;10.57;;;16.30;89.10;;;;;;5052275;28;20025;-74
2024/02/23 08:23:46;;;;;;;34.83;10.05;;;16.40;88.90;;;;;;5050901;28;20040;-74
2024/02/23 08:26:11;;;;;;;30.58;9.93;;;16.50;88.80;;;;;;5052456;28;20021;-75
2024/02/23 08:28:37;;;;;;;35.15;10.85;;;16.60;88.40;;;;;;5052338;28;20144;-74
2024/02/23 08:31:03;;;;;;;27.42;10.10;;;16.80;88.10;;;;;;5052397;28;20056;-75
2024/02/23 08:33:29;;;;;;;34.55;9.82;;;16.90;87.40;;;;;;5052372;28;20037;-74
2024/02/23 08:35:54;;;;;;;28.38;10.32;;;17.10;87.00;;;;;;5051718;28;20048;-75
2024/02/23 08:38:20;;;;;;;30.35;10.80;;;17.20;86.50;;;;;;5051448;28;20047;-75
2024/02/23 08:40:46;;;;;;;35.40;10.82;;;17.20;86.20;;;;;;5051937;28;20040;-75
2024/02/23 08:43:13;;;;;;;30.20;9.70;;;17.30;86.00;;;;;;5051904;28;20029;-75
2024/02/23 08:45:39;;;;;;;20.92;9.57;;;17.30;85.80;;;;;;5052168;28;20043;-75
2024/02/23 08:48:05;;;;;;;27.58;10.32;;;17.30;85.50;;;;;;5051774;28;20037;-75
2024/02/23 08:50:31;;;;;;;28.42;9.10;;;17.40;85.50;;;;;;5051970;28;20461;-74
2024/02/23 08:52:56;;;;;;;27.35;9.55;;;17.50;85.10;;;;;;5052085;28;20029;-75
2024/02/23 08:55:22;;;;;;;31.58;9.85;;;17.60;84.90;;;;;;5051845;28;20033;-74
2024/02/23 08:57:48;;;;;;;25.67;9.40;;;17.70;84.80;;;;;;5051908;28;20021;-74
2024/02/23 09:00:14;;;;;;;24.67;9.68;;;17.70;84.50;;;;;;5051833;28;20401;-75
2024/02/23 09:02:42;;;;;;;25.25;10.13;;;17.80;84.40;;;;;;5050718;28;20041;-75
2024/02/23 09:05:08;;;;;;;26.45;9.82;;;17.80;84.00;;;;;;5051816;28;20110;-75
2024/02/23 09:07:34;;;;;;;26.95;9.70;;;17.80;84.00;;;;;;5050551;28;20044;-73
2024/02/23 09:10:00;;;;;;;38.45;10.38;;;17.80;83.80;;;;;;5051900;28;20904;-76
2024/02/23 09:12:26;;;;;;;27.88;9.23;;;17.90;83.80;;;;;;5050463;28;20063;-76
2024/02/23 09:14:51;;;;;;;31.90;9.95;;;17.90;83.60;;;;;;5051861;28;20037;-73
2024/02/23 09:17:20;;;;;;;34.65;10.93;;;17.90;83.60;;;;;;5055898;28;20029;-74
2024/02/23 09:19:46;;;;;;;31.70;9.10;;;17.90;83.50;;;;;;5052075;28;20125;-76
2024/02/23 09:22:11;;;;;;;26.30;9.38;;;18.00;83.50;;;;;;5052034;28;20053;-74
2024/02/23 09:24:41;;;;;;;31.30;9.85;;;17.90;83.10;;;;;;5052076;28;20044;-74
2024/02/23 09:27:09;;;;;;;34.55;10.63;;;18.00;83.20;;;;;;5052104;28;20033;-75
2024/02/23 09:29:35;;;;;;;35.17;9.63;;;18.00;83.20;;;;;;5051783;28;20090;-74
2024/02/23 09:32:01;;;;;;;33.97;9.73;;;18.00;82.90;;;;;;5051716;28;20045;-74
2024/02/23 09:34:27;;;;;;;31.98;9.57;;;18.00;83.00;;;;;;5051570;28;20044;-75
2024/02/23 09:36:53;;;;;;;30.40;10.43;;;17.90;82.90;;;;;;5051386;28;20443;-74
2024/02/23 09:39:19;;;;;;;25.67;9.40;;;17.90;83.00;;;;;;5033525;28;20051;-75
2024/02/23 09:41:49;;;;;;;27.75;9.70;;;17.90;83.00;;;;;;5051515;28;20515;-74
2024/02/23 09:44:15;;;;;;;31.55;9.70;;;17.90;83.10;;;;;;5050078;28;20029;-74
2024/02/23 09:46:44;;;;;;;27.58;9.63;;;17.90;83.20;;;;;;5051407;28;20456;-74
2024/02/23 09:49:11;;;;;;;32.22;9.32;;;17.90;83.20;;;;;;5054316;28;20029;-75
2024/02/23 09:51:38;;;;;;;35.75;9.10;;;17.80;83.00;;;;;;5055288;28;20029;-77
2024/02/23 09:54:04;;;;;;;29.15;9.10;;;17.90;83.00;;;;;;5037506;28;20043;-74
2024/02/23 09:56:30;;;;;;;39.72;10.60;;;17.90;83.10;;;;;;5055245;28;20121;-73
2024/02/23 09:59:01;;;;;;;36.33;10.27;;;18.00;82.80;;;;;;5055476;28;20099;-74
2024/02/23 10:01:32;;;;;;;35.03;9.18;;;18.00;82.70;;;;;;5055484;28;20033;-76
2024/02/23 10:03:59;;;;;;;31.35;10.43;;;18.00;82.70;;;;;;5055372;28;20064;-74
2024/02/23 10:06:26;;;;;;;32.47;10.10;;;18.00;82.70;;;;;;5055244;28;20558;-76
2024/02/23 10:08:53;;;;;;;34.75;9.57;;;17.90;82.90;;;;;;5037242;28;20069;-75
2024/02/23 10:11:23;;;;;;;40.75;12.00;;;17.90;83.20;;;;;;5054958;28;20099;-74
2024/02/23 10:13:49;;;;;;;84.65;14.50;;;17.80;83.30;;;;;;5054722;28;20041;-75
2024/02/23 10:16:20;;;;;;;44.83;10.82;;;17.70;83.40;;;;;;5054891;28;20052;-74
2024/02/23 10:18:48;;;;;;;42.55;10.15;;;17.70;83.70;;;;;;5054882;28;20033;-74
2024/02/23 10:21:14;;;;;;;37.88;11.68;;;17.60;83.80;;;;;;5055058;28;20079;-74
2024/02/23 10:23:41;;;;;;;46.72;10.90;;;17.50;83.90;;;;;;5054783;28;20072;-75
2024/02/23 10:26:08;;;;;;;42.85;9.90;;;17.50;84.30;;;;;;5036802;28;20396;-74
2024/02/23 10:28:40;;;;;;;34.97;9.25;;;17.40;84.50;;;;;;5039467;28;20128;-74
2024/02/23 10:31:06;;;;;;;30.95;8.15;;;17.40;84.60;;;;;;5054928;28;20049;-74
2024/02/23 10:33:32;;;;;;;27.27;8.98;;;17.40;84.50;;;;;;5054922;28;20036;-74
2024/02/23 10:36:00;;;;;;;31.65;9.18;;;17.30;84.70;;;;;;5053664;28;20036;-75
2024/02/23 10:38:32;;;;;;;36.45;10.20;;;17.30;84.50;;;;;;5036851;28;20412;-73
2024/02/23 10:40:59;;;;;;;37.92;10.48;;;17.30;84.50;;;;;;5054591;28;20045;-75
2024/02/23 10:43:41;;;;;;;33.47;9.30;;;17.30;84.50;;;;;;5055118;28;20029;-74
2024/02/23 10:46:12;;;;;;;40.58;9.63;;;17.20;84.50;;;;;;5054347;28;20032;-74
2024/02/23 10:48:43;;;;;;;31.73;8.98;;;17.20;84.60;;;;;;5054369;28;20025;-76
2024/02/23 10:51:12;;;;;;;35.78;9.85;;;17.10;85.10;;;;;;5054351;28;20037;-74
2024/02/23 10:53:39;;;;;;;41.03;10.23;;;17.10;84.70;;;;;;5054117;28;20442;-75
2024/02/23 10:56:06;;;;;;;54.40;11.57;;;17.00;85.00;;;;;;5054330;28;20037;-74
2024/02/23 10:58:32;;;;;;;67.18;13.98;;;17.00;84.90;;;;;;5053952;28;20069;-76
2024/02/23 11:01:04;;;;;;;42.47;11.50;;;17.00;85.10;;;;;;5053688;28;20063;-75
2024/02/23 11:03:32;;;;;;;48.80;11.15;;;17.00;85.10;;;;;;5054938;28;20111;-75
2024/02/23 11:05:59;;;;;;;50.55;11.63;;;17.10;85.10;;;;;;5054272;28;20033;-75
2024/02/23 11:08:28;;;;;;;45.58;11.27;;;17.10;85.20;;;;;;5054117;28;20033;-75
2024/02/23 11:10:54;;;;;;;34.83;10.68;;;17.10;85.00;;;;;;5054022;28;20029;-76
2024/02/23 11:13:36;;;;;;;38.83;9.90;;;17.00;85.10;;;;;;5054043;28;20103;-76
2024/02/23 11:16:03;;;;;;;31.80;9.70;;;17.00;84.90;;;;;;5053868;28;20048;-75
2024/02/23 11:18:29;;;;;;;34.00;10.40;;;16.90;85.10;;;;;;5053719;28;20224;-76
2024/02/23 11:20:58;;;;;;;31.75;9.68;;;16.90;85.30;;;;;;5053782;28;20501;-76
2024/02/23 11:23:25;;;;;;;41.80;11.30;;;16.90;85.60;;;;;;5036049;28;20489;-76
2024/02/23 11:26:08;;;;;;;36.13;10.82;;;16.90;85.70;;;;;;5053602;28;20040;-75
2024/02/23 11:28:42;;;;;;;40.35;9.85;;;16.90;85.70;;;;;;5053451;28;20037;-75
2024/02/23 11:31:12;;;;;;;37.70;9.98;;;16.90;85.40;;;;;;5053327;28;20049;-75
2024/02/23 11:33:38;;;;;;;36.78;11.10;;;16.90;85.30;;;;;;5053203;28;20029;-75
2024/02/23 11:36:08;;;;;;;44.38;9.98;;;17.00;85.50;;;;;;5053407;28;20406;-74
2024/02/23 11:38:34;;;;;;;36.40;10.18;;;17.00;85.70;;;;;;5053729;28;20044;-75
2024/02/23 11:41:03;;;;;;;51.03;11.00;;;17.00;85.50;;;;;;5039356;28;20501;-75
2024/02/23 11:43:29;;;;;;;31.55;10.52;;;17.00;85.70;;;;;;5054555;28;20040;-75
2024/02/23 11:45:55;;;;;;;39.80;10.23;;;17.10;85.90;;;;;;5053136;28;20473;-74
2024/02/23 11:48:21;;;;;;;29.55;10.35;;;17.10;85.80;;;;;;5035488;28;20186;-76
2024/02/23 11:50:49;;;;;;;39.65;10.90;;;17.10;85.70;;;;;;5053779;28;20037;-75
2024/02/23 11:53:15;;;;;;;36.60;9.35;;;17.10;85.70;;;;;;5053559;28;20033;-75
2024/02/23 11:55:41;;;;;;;36.83;10.30;;;17.10;85.80;;;;;;5053580;28;20044;-75
2024/02/23 11:58:07;;;;;;;42.30;10.35;;;17.10;85.90;;;;;;5052941;28;20029;-75
2024/02/23 12:00:32;;;;;;;33.13;9.77;;;17.00;86.00;;;;;;5053525;28;20111;-75
2024/02/23 12:02:59;;;;;;;40.65;11.05;;;17.00;86.00;;;;;;5053479;28;20029;-75
2024/02/23 12:05:24;;;;;;;33.83;10.95;;;17.00;86.10;;;;;;5053221;28;20037;-76
2024/02/23 12:07:51;;;;;;;34.72;10.40;;;17.10;86.30;;;;;;5052925;28;20365;-75
2024/02/23 12:10:17;;;;;;;35.58;10.13;;;17.10;86.10;;;;;;5052775;28;20029;-75
2024/02/23 12:12:43;;;;;;;39.30;10.95;;;17.10;86.40;;;;;;5052571;28;20033;-74
2024/02/23 12:15:08;;;;;;;41.60;11.30;;;17.10;85.70;;;;;;5052569;28;20132;-74
2024/02/23 12:17:37;;;;;;;36.15;11.60;;;17.10;86.30;;;;;;5052463;28;20144;-74
2024/02/23 12:20:03;;;;;;;39.38;11.18;;;17.10;85.60;;;;;;5052743;28;20037;-75
2024/02/23 12:22:29;;;;;;;42.17;11.55;;;17.10;85.90;;;;;;5034621;28;20098;-75
2024/02/23 12:25:02;;;;;;;37.42;10.20;;;17.10;85.70;;;;;;5052614;28;20032;-75
2024/02/23 12:27:29;;;;;;;34.50;10.40;;;17.10;85.80;;;;;;5052623;28;20043;-75
2024/02/23 12:29:55;;;;;;;41.25;10.77;;;17.10;85.70;;;;;;5052430;28;20453;-74
2024/02/23 12:32:21;;;;;;;37.45;10.82;;;17.10;85.80;;;;;;5051732;28;20047;-75